sim
Sign-in with your pilot id or email,
or register
Callsign
Passwort

Schedule Details

Flight Number: DLH2285 (2)
Departure: Brussels Airport (EBBR) at 09:45
Arrival: Munich Airport (EDDM) at 11:00
Route: Lufthansa Passenger Schedule. Enter filed route here before submitting Pirep.

Weather Information
Getting current METAR information for EBBR 241820Z 14005KT 9999 -SHRA FEW030 13/12 Q0997 TEMPO SHRA
Getting current METAR information for EDDM 241820Z 06003KT 030V090 CAVOK 17/13 Q1005 NOSIG

Schedule Frequency

Route Map